createdAt,value
2023-01-17T00:01:16.290Z,97745.77
2023-01-17T00:04:06.428Z,97742.30
2023-01-17T00:06:56.654Z,97748.26
2023-01-17T00:09:46.558Z,97743.30
2023-01-17T00:12:18.976Z,97745.66
2023-01-17T00:14:52.892Z,97743.54
2023-01-17T00:17:30.007Z,97738.89
2023-01-17T00:20:20.328Z,97721.64
2023-01-17T00:23:10.435Z,97736.11
2023-01-17T00:26:00.775Z,97728.16
2023-01-17T00:28:33.602Z,97723.12
2023-01-17T00:31:06.846Z,97720.93
2023-01-17T00:33:38.306Z,97719.17
2023-01-17T00:36:10.987Z,97713.20
2023-01-17T00:38:42.537Z,97713.48
2023-01-17T00:41:15.316Z,97710.09
2023-01-17T00:44:05.151Z,97711.26
2023-01-17T00:46:55.310Z,97700.66
2023-01-17T00:49:45.151Z,97691.91
2023-01-17T00:52:35.274Z,97683.34
2023-01-17T00:55:26.065Z,97675.48
2023-01-17T00:58:16.379Z,97664.95
2023-01-17T01:01:06.188Z,97647.86
2023-01-17T01:03:56.415Z,97626.81
2023-01-17T01:06:47.751Z,97616.73
2023-01-17T01:09:37.777Z,97613.70
2023-01-17T01:12:27.904Z,97632.50
2023-01-17T01:15:17.705Z,97665.69
2023-01-17T01:18:07.685Z,97672.11
2023-01-17T01:20:57.762Z,97666.52
2023-01-17T01:23:47.831Z,97662.02
2023-01-17T01:26:37.524Z,97659.14
2023-01-17T01:29:27.455Z,97662.12
2023-01-17T01:32:19.981Z,97658.60
2023-01-17T01:34:52.839Z,97651.89
2023-01-17T01:37:25.494Z,97643.99
2023-01-17T01:39:57.988Z,97642.50
2023-01-17T01:42:30.449Z,97629.45
2023-01-17T01:45:02.811Z,97627.80
2023-01-17T01:47:40.806Z,97631.40
2023-01-17T01:50:15.427Z,97630.67
2023-01-17T01:52:51.497Z,97627.94
2023-01-17T01:55:30.118Z,97628.60
2023-01-17T01:58:09.826Z,97618.42
2023-01-17T02:00:43.376Z,97610.33
2023-01-17T02:03:19.618Z,97607.05
2023-01-17T02:05:52.135Z,97605.70
2023-01-17T02:08:25.993Z,97603.25
2023-01-17T02:10:59.560Z,97608.17
2023-01-17T02:13:32.590Z,97604.14
2023-01-17T02:16:15.349Z,97595.70
2023-01-17T02:19:01.166Z,97587.27
2023-01-17T02:21:37.825Z,97579.85
2023-01-17T02:24:58.132Z,97579.19
2023-01-17T02:27:39.500Z,97570.88
2023-01-17T02:30:29.788Z,97561.17
2023-01-17T02:33:13.371Z,97553.20
2023-01-17T02:35:56.319Z,97551.37
2023-01-17T02:38:38.239Z,97554.55
2023-01-17T02:41:17.050Z,97558.46
2023-01-17T02:43:52.284Z,97556.83
2023-01-17T02:46:24.672Z,97556.64
2023-01-17T02:48:58.975Z,97562.10
2023-01-17T02:51:47.428Z,97574.05
2023-01-17T02:54:47.177Z,97556.38
2023-01-17T02:57:40.586Z,97557.65
2023-01-17T03:00:22.421Z,97552.00
2023-01-17T03:03:03.829Z,97549.02
2023-01-17T03:05:42.644Z,97542.05
2023-01-17T03:08:17.085Z,97542.08
2023-01-17T03:10:49.708Z,97540.64
2023-01-17T03:13:22.583Z,97541.39
2023-01-17T03:15:55.028Z,97538.35
2023-01-17T03:18:27.545Z,97543.59
2023-01-17T03:20:59.953Z,97538.25
2023-01-17T03:23:32.337Z,97518.60
2023-01-17T03:26:04.970Z,97536.65
2023-01-17T03:28:37.595Z,97529.72
2023-01-17T03:31:10.647Z,97533.84
2023-01-17T03:33:43.001Z,97528.21
2023-01-17T03:36:15.512Z,97531.55
2023-01-17T03:38:48.104Z,97536.75
2023-01-17T03:41:20.668Z,97535.60
2023-01-17T03:43:53.180Z,97528.36
2023-01-17T03:46:27.691Z,97529.05
2023-01-17T03:49:00.301Z,97529.59
2023-01-17T03:51:32.669Z,97532.24
2023-01-17T03:54:05.208Z,97535.33
2023-01-17T03:56:37.551Z,97536.35
2023-01-17T03:59:12.229Z,97516.52
2023-01-17T04:01:45.491Z,97530.91
2023-01-17T04:04:17.937Z,97530.39
2023-01-17T04:06:50.400Z,97527.70
2023-01-17T04:09:23.158Z,97527.84
2023-01-17T04:11:55.632Z,97529.00
2023-01-17T04:14:28.292Z,97523.81
2023-01-17T04:17:01.444Z,97518.02
2023-01-17T04:19:35.244Z,97518.69
2023-01-17T04:22:07.783Z,97517.17
2023-01-17T04:24:40.133Z,97514.45
2023-01-17T04:27:14.441Z,97491.65
2023-01-17T04:29:47.048Z,97507.98
2023-01-17T04:32:19.588Z,97505.46
2023-01-17T04:34:52.062Z,97508.19
2023-01-17T04:37:24.901Z,97509.02
2023-01-17T04:39:57.479Z,97507.10
2023-01-17T04:42:30.311Z,97506.77
2023-01-17T04:45:03.083Z,97507.81
2023-01-17T04:47:35.973Z,97508.71
2023-01-17T04:50:09.715Z,97511.56
2023-01-17T04:52:42.093Z,97510.73
2023-01-17T04:55:14.886Z,97507.56
2023-01-17T04:57:48.548Z,97508.92
2023-01-17T05:00:24.304Z,97507.51
2023-01-17T05:02:56.916Z,97500.66
2023-01-17T05:05:29.410Z,97508.80
2023-01-17T05:08:01.851Z,97516.66
2023-01-17T05:10:34.510Z,97517.46
2023-01-17T05:13:07.052Z,97505.92
2023-01-17T05:15:40.185Z,97528.85
2023-01-17T05:18:15.442Z,97525.38
2023-01-17T05:20:47.915Z,97529.82
2023-01-17T05:23:20.609Z,97532.48
2023-01-17T05:25:53.022Z,97529.92
2023-01-17T05:28:25.640Z,97532.30
2023-01-17T05:30:58.200Z,97534.33
2023-01-17T05:33:30.793Z,97526.73
2023-01-17T05:36:03.753Z,97536.38
2023-01-17T05:38:36.137Z,97537.56
2023-01-17T05:41:09.001Z,97537.30
2023-01-17T05:43:41.430Z,97535.98
2023-01-17T05:46:16.180Z,97537.53
2023-01-17T05:48:46.954Z,97540.21
2023-01-17T05:51:19.693Z,97540.05
2023-01-17T05:53:52.072Z,97544.84
2023-01-17T05:56:24.596Z,97548.58
2023-01-17T05:58:57.004Z,97544.58
2023-01-17T06:01:29.632Z,97551.09
2023-01-17T06:04:01.986Z,97551.46
2023-01-17T06:06:34.395Z,97552.80
2023-01-17T06:09:07.141Z,97557.03
2023-01-17T06:11:42.828Z,97557.15
2023-01-17T06:14:15.467Z,97556.64
2023-01-17T06:16:48.054Z,97553.84
2023-01-17T06:19:20.509Z,97554.73
2023-01-17T06:21:53.017Z,97552.19
2023-01-17T06:24:25.439Z,97552.63
2023-01-17T06:26:57.952Z,97555.10
2023-01-17T06:29:30.455Z,97560.28
2023-01-17T06:32:03.113Z,97556.79
2023-01-17T06:34:35.490Z,97560.16
2023-01-17T06:37:08.062Z,97566.09
2023-01-17T06:39:40.460Z,97565.95
2023-01-17T06:42:13.682Z,97569.08
2023-01-17T06:44:46.167Z,97576.53
2023-01-17T06:47:18.712Z,97571.61
2023-01-17T06:49:51.221Z,97564.74
2023-01-17T06:52:23.956Z,97573.99
2023-01-17T06:54:56.815Z,97574.98
2023-01-17T06:57:29.518Z,97557.48
2023-01-17T07:00:02.489Z,97574.61
2023-01-17T07:02:34.912Z,97574.17
2023-01-17T07:05:10.045Z,97579.66
2023-01-17T07:07:40.815Z,97583.42
2023-01-17T07:10:15.033Z,97583.40
2023-01-17T07:12:47.867Z,97588.38
2023-01-17T07:15:21.008Z,97588.94
2023-01-17T07:17:53.800Z,97595.30
2023-01-17T07:20:26.231Z,97593.16
2023-01-17T07:22:59.003Z,97593.81
2023-01-17T07:25:31.430Z,97600.83
2023-01-17T07:28:03.939Z,97600.84
2023-01-17T07:30:36.769Z,97596.42
2023-01-17T07:33:09.993Z,97602.94
2023-01-17T07:35:43.176Z,97611.50
2023-01-17T07:38:18.325Z,97613.59
2023-01-17T07:40:50.741Z,97613.09
2023-01-17T07:43:23.784Z,97611.80
2023-01-17T07:45:56.429Z,97616.10
2023-01-17T07:48:29.286Z,97626.05
2023-01-17T07:51:01.766Z,97632.11
2023-01-17T07:53:35.853Z,97634.29
2023-01-17T07:56:09.977Z,97621.58
2023-01-17T07:58:43.007Z,97611.85
2023-01-17T08:01:16.823Z,97641.70
2023-01-17T08:03:53.431Z,97642.56
2023-01-17T08:06:27.752Z,97646.01
2023-01-17T08:09:00.161Z,97634.54
2023-01-17T08:11:32.775Z,97652.42
2023-01-17T08:14:05.936Z,97646.39
2023-01-17T08:16:40.257Z,97645.22
2023-01-17T08:19:12.954Z,97649.40
2023-01-17T08:21:45.564Z,97654.35
2023-01-17T08:24:18.063Z,97657.23
2023-01-17T08:26:50.692Z,97656.13
2023-01-17T08:29:23.811Z,97654.52
2023-01-17T08:31:56.296Z,97658.95
2023-01-17T08:34:28.936Z,97651.83
2023-01-17T08:37:01.281Z,97645.05
2023-01-17T08:39:33.804Z,97660.14
2023-01-17T08:42:06.248Z,97663.57
2023-01-17T08:44:39.937Z,97671.30
2023-01-17T08:47:12.464Z,97669.57
2023-01-17T08:49:45.378Z,97679.60
2023-01-17T08:52:17.813Z,97678.06
2023-01-17T08:54:50.399Z,97682.22
2023-01-17T08:57:23.384Z,97692.13
2023-01-17T08:59:59.351Z,97695.88
2023-01-17T09:02:32.032Z,97696.73
2023-01-17T09:05:04.682Z,97704.52
2023-01-17T09:07:37.128Z,97706.47
2023-01-17T09:10:10.856Z,97711.98
2023-01-17T09:12:43.243Z,97714.13
2023-01-17T09:15:20.330Z,97717.66
2023-01-17T09:17:56.010Z,97722.78
2023-01-17T09:20:30.988Z,97731.35
2023-01-17T09:23:04.946Z,97732.19
2023-01-17T09:25:37.417Z,97737.05
2023-01-17T09:28:09.895Z,97741.25
2023-01-17T09:30:42.453Z,97745.82
2023-01-17T09:33:14.851Z,97744.00
2023-01-17T09:35:47.791Z,97743.77
2023-01-17T09:38:21.795Z,97749.76
2023-01-17T09:40:54.235Z,97747.55
2023-01-17T09:43:35.451Z,97754.31
2023-01-17T09:46:18.815Z,97756.45
2023-01-17T09:48:54.683Z,97757.46
2023-01-17T09:51:27.316Z,97756.41
2023-01-17T09:54:00.326Z,97740.29
2023-01-17T09:56:38.027Z,97757.19
2023-01-17T09:59:32.732Z,97760.33
2023-01-17T10:02:26.170Z,97761.06
2023-01-17T10:05:27.841Z,97759.33
2023-01-17T10:08:16.909Z,97758.54
2023-01-17T10:11:05.174Z,97758.45
2023-01-17T10:13:47.302Z,97740.12
2023-01-17T10:16:32.371Z,97739.27
2023-01-17T10:19:28.409Z,97755.39
2023-01-17T10:22:12.124Z,97758.02
2023-01-17T10:25:25.117Z,97762.60
2023-01-17T10:28:00.350Z,97765.96
2023-01-17T10:30:40.308Z,97770.38
2023-01-17T10:33:19.301Z,97771.30
2023-01-17T10:36:04.366Z,97772.46
2023-01-17T10:38:41.734Z,97770.27
2023-01-17T10:41:23.088Z,97770.92
2023-01-17T10:44:07.973Z,97771.29
2023-01-17T10:46:44.489Z,97765.96
2023-01-17T10:49:21.346Z,97770.60
2023-01-17T10:52:19.366Z,97772.33
2023-01-17T10:55:05.281Z,97778.09
2023-01-17T10:57:43.323Z,97778.19
2023-01-17T11:00:34.258Z,97778.34
2023-01-17T11:03:07.667Z,97773.35
2023-01-17T11:05:43.268Z,97778.34
2023-01-17T11:08:17.850Z,97777.75
2023-01-17T11:10:54.502Z,97773.33
2023-01-17T11:13:31.043Z,97778.19
2023-01-17T11:16:07.684Z,97783.23
2023-01-17T11:18:41.855Z,97782.93
2023-01-17T11:21:18.523Z,97784.77
2023-01-17T11:23:54.942Z,97781.77
2023-01-17T11:26:29.621Z,97766.39
2023-01-17T11:29:35.828Z,97785.30
2023-01-17T11:32:34.234Z,97786.34
2023-01-17T11:35:19.052Z,97788.13
2023-01-17T11:37:53.717Z,97782.45
2023-01-17T11:40:27.123Z,97783.06
2023-01-17T11:43:22.084Z,97782.88
2023-01-17T11:46:15.864Z,97784.19
2023-01-17T11:48:55.962Z,97786.02
2023-01-17T11:51:32.714Z,97783.80
2023-01-17T11:54:18.253Z,97786.19
2023-01-17T11:56:51.939Z,97782.52
2023-01-17T11:59:28.748Z,97784.96
2023-01-17T12:02:33.670Z,97787.58
2023-01-17T12:05:29.279Z,97786.91
2023-01-17T12:08:11.004Z,97783.33
2023-01-17T12:10:52.320Z,97781.39
2023-01-17T12:13:53.411Z,97789.00
2023-01-17T12:16:36.981Z,97783.52
2023-01-17T12:19:26.218Z,97796.80
2023-01-17T12:22:12.934Z,97805.70
2023-01-17T12:25:03.956Z,97807.88
2023-01-17T12:27:45.495Z,97793.31
2023-01-17T12:30:30.836Z,97809.19
2023-01-17T12:33:19.164Z,97807.10
2023-01-17T12:35:57.178Z,97790.20
2023-01-17T12:38:36.008Z,97799.93
2023-01-17T12:41:15.322Z,97788.04
2023-01-17T12:43:48.102Z,97797.47
2023-01-17T12:46:28.413Z,97796.33
2023-01-17T12:49:04.778Z,97805.94
2023-01-17T12:51:42.998Z,97801.56
2023-01-17T12:54:25.389Z,97801.70
2023-01-17T12:57:04.059Z,97806.95
2023-01-17T12:59:43.801Z,97810.20
2023-01-17T13:02:24.984Z,97816.99
2023-01-17T13:05:05.400Z,97811.70
2023-01-17T13:07:45.415Z,97824.02
2023-01-17T13:10:35.558Z,97816.20
2023-01-17T13:13:22.564Z,97827.02
2023-01-17T13:15:59.078Z,97828.94
2023-01-17T13:18:33.438Z,97834.37
2023-01-17T13:21:31.345Z,97835.91
2023-01-17T13:24:33.740Z,97842.13
2023-01-17T13:27:35.088Z,97846.85
2023-01-17T13:30:33.051Z,97850.03
2023-01-17T13:33:29.764Z,97832.98
2023-01-17T13:36:18.136Z,97857.79
2023-01-17T13:39:02.207Z,97860.05
2023-01-17T13:41:51.521Z,97868.08
2023-01-17T13:44:30.194Z,97871.47
2023-01-17T13:47:04.683Z,97884.35
2023-01-17T13:49:48.593Z,97891.67
2023-01-17T13:52:34.099Z,97903.58
2023-01-17T13:55:08.610Z,97906.93
2023-01-17T13:57:44.938Z,97929.20
2023-01-17T14:00:55.132Z,97938.30
2023-01-17T14:04:06.643Z,97938.90
2023-01-17T14:06:45.428Z,97930.33
2023-01-17T14:09:24.854Z,97932.05
2023-01-17T14:12:01.085Z,97934.30
2023-01-17T14:14:52.200Z,97938.61
2023-01-17T14:17:49.129Z,97944.70
2023-01-17T14:20:51.181Z,97944.18
2023-01-17T14:23:52.629Z,97945.69
2023-01-17T14:26:58.953Z,97953.12
2023-01-17T14:29:50.972Z,97954.82
2023-01-17T14:32:27.303Z,97959.42
2023-01-17T14:35:00.529Z,97962.84
2023-01-17T14:37:43.438Z,97965.37
2023-01-17T14:40:21.866Z,97965.57
2023-01-17T14:43:00.726Z,97974.90
2023-01-17T14:45:35.134Z,97976.55
2023-01-17T14:48:15.845Z,97983.80
2023-01-17T14:50:49.903Z,97991.54
2023-01-17T14:53:28.335Z,97995.79
2023-01-17T14:56:03.377Z,98000.75
2023-01-17T14:58:37.675Z,98005.59
2023-01-17T15:01:14.863Z,98007.55
2023-01-17T15:03:51.049Z,98015.69
2023-01-17T15:06:26.310Z,98014.29
2023-01-17T15:09:01.104Z,98017.65
2023-01-17T15:11:37.361Z,98023.16
2023-01-17T15:14:14.455Z,98033.99
2023-01-17T15:16:46.936Z,98035.08
2023-01-17T15:19:20.328Z,98041.20
2023-01-17T15:21:55.043Z,98043.52
2023-01-17T15:24:34.543Z,98047.13
2023-01-17T15:27:08.070Z,98051.54
2023-01-17T15:29:43.208Z,98052.96
2023-01-17T15:32:24.196Z,98035.77
2023-01-17T15:34:57.272Z,98054.58
2023-01-17T15:37:34.097Z,98060.11
2023-01-17T15:40:18.824Z,98063.17
2023-01-17T15:42:56.636Z,98070.30
2023-01-17T15:45:31.875Z,98079.61
2023-01-17T15:48:34.785Z,98084.99
2023-01-17T15:51:07.923Z,98087.94
2023-01-17T15:53:43.352Z,98089.99
2023-01-17T15:56:30.999Z,98092.52
2023-01-17T15:59:30.582Z,98082.52
2023-01-17T16:02:03.562Z,98098.77
2023-01-17T16:04:37.802Z,98102.88
2023-01-17T16:07:20.437Z,98108.48
2023-01-17T16:09:53.002Z,98110.38
2023-01-17T16:12:25.480Z,98110.93
2023-01-17T16:15:11.258Z,98109.98
2023-01-17T16:17:46.788Z,98092.73
2023-01-17T16:20:22.697Z,98114.41
2023-01-17T16:22:55.208Z,98113.79
2023-01-17T16:25:32.362Z,98120.48
2023-01-17T16:28:05.564Z,98119.77
2023-01-17T16:30:38.553Z,98105.73
2023-01-17T16:33:14.551Z,98121.90
2023-01-17T16:35:47.132Z,98121.27
2023-01-17T16:38:20.594Z,98118.02
2023-01-17T16:40:53.256Z,98098.88
2023-01-17T16:43:25.866Z,98124.89
2023-01-17T16:45:58.362Z,98126.08
2023-01-17T16:48:30.880Z,98126.16
2023-01-17T16:51:08.793Z,98127.02
2023-01-17T16:53:41.509Z,98125.84
2023-01-17T16:56:17.083Z,98130.17
2023-01-17T16:58:49.652Z,98127.89
2023-01-17T17:01:22.938Z,98134.34
2023-01-17T17:03:55.830Z,98134.50
2023-01-17T17:06:28.268Z,98134.73
2023-01-17T17:09:01.636Z,98136.40
2023-01-17T17:11:34.271Z,98131.34
2023-01-17T17:14:08.337Z,98131.25
2023-01-17T17:16:40.746Z,98126.68
2023-01-17T17:19:13.747Z,98124.72
2023-01-17T17:21:46.517Z,98128.42
2023-01-17T17:24:19.483Z,98131.02
2023-01-17T17:26:52.067Z,98113.09
2023-01-17T17:29:24.664Z,98129.19
2023-01-17T17:31:57.142Z,98119.00
2023-01-17T17:34:31.961Z,98134.08
2023-01-17T17:37:04.452Z,98136.52
2023-01-17T17:39:37.061Z,98136.48
2023-01-17T17:42:09.458Z,98139.73
2023-01-17T17:44:42.087Z,98128.21
2023-01-17T17:47:16.152Z,98150.21
2023-01-17T17:49:48.795Z,98154.78
2023-01-17T17:52:21.447Z,98162.40
2023-01-17T17:54:54.006Z,98162.08
2023-01-17T17:57:27.116Z,98168.69
2023-01-17T18:00:02.162Z,98156.60
2023-01-17T18:02:39.278Z,98164.04
2023-01-17T18:05:15.145Z,98167.58
2023-01-17T18:07:49.342Z,98156.78
2023-01-17T18:10:25.823Z,98158.02
2023-01-17T18:13:01.340Z,98154.55
2023-01-17T18:15:34.486Z,98155.48
2023-01-17T18:18:08.326Z,98155.48
2023-01-17T18:20:45.245Z,98156.88
2023-01-17T18:23:17.618Z,98152.52
2023-01-17T18:25:51.191Z,98158.34
2023-01-17T18:28:23.745Z,98158.47
2023-01-17T18:30:56.552Z,98163.15
2023-01-17T18:33:45.156Z,98167.55
2023-01-17T18:36:29.312Z,98176.66
2023-01-17T18:39:02.097Z,98183.90
2023-01-17T18:41:51.758Z,98192.94
2023-01-17T18:44:33.252Z,98197.81
2023-01-17T18:47:11.050Z,98204.02
2023-01-17T18:49:43.442Z,98211.23
2023-01-17T18:52:17.759Z,98215.39
2023-01-17T18:54:50.171Z,98218.02
2023-01-17T19:00:51.446Z,98226.84
2023-01-17T19:03:31.671Z,98224.29
2023-01-17T19:06:13.774Z,98232.67
2023-01-17T19:08:59.379Z,98232.39
2023-01-17T19:11:38.206Z,98232.73
2023-01-17T19:14:11.910Z,98228.08
2023-01-17T19:16:45.059Z,98228.07
2023-01-17T19:19:50.121Z,98233.96
2023-01-17T19:22:24.180Z,98231.83
2023-01-17T19:24:56.746Z,98232.70
2023-01-17T19:27:32.349Z,98234.17
2023-01-17T19:30:05.481Z,98238.19
2023-01-17T19:32:39.252Z,98204.62
2023-01-17T19:35:17.669Z,98243.14
2023-01-17T19:37:53.401Z,98230.48
2023-01-17T19:40:27.048Z,98237.63
2023-01-17T19:43:09.902Z,98241.64
2023-01-17T19:46:18.834Z,98237.85
2023-01-17T19:49:00.206Z,98229.90
2023-01-17T19:51:32.862Z,98232.34
2023-01-17T19:54:06.595Z,98218.80
2023-01-17T19:56:39.471Z,98235.48
2023-01-17T19:59:20.287Z,98236.90
2023-01-17T20:02:02.525Z,98236.65
2023-01-17T20:04:44.273Z,98238.76
2023-01-17T20:07:17.307Z,98231.45
2023-01-17T20:09:49.803Z,98234.94
2023-01-17T20:12:22.803Z,98237.83
2023-01-17T20:14:55.596Z,98239.23
2023-01-17T20:17:28.281Z,98244.71
2023-01-17T20:20:00.870Z,98249.55
2023-01-17T20:22:33.709Z,98246.41
2023-01-17T20:25:07.598Z,98230.00
2023-01-17T20:27:40.932Z,98249.64
2023-01-17T20:30:20.495Z,98258.31
2023-01-17T20:32:53.709Z,98261.81
2023-01-17T20:35:28.570Z,98263.56
2023-01-17T20:38:01.069Z,98249.83
2023-01-17T20:40:33.420Z,98263.02
2023-01-17T20:43:06.351Z,98269.05
2023-01-17T20:45:39.225Z,98277.20
2023-01-17T20:48:12.328Z,98273.85
2023-01-17T20:50:44.981Z,98283.48
2023-01-17T20:53:19.428Z,98279.76
2023-01-17T20:55:58.417Z,98281.91
2023-01-17T20:58:31.485Z,98285.70
2023-01-17T21:01:04.478Z,98284.34
2023-01-17T21:03:38.912Z,98283.79
2023-01-17T21:06:13.810Z,98292.73
2023-01-17T21:08:48.476Z,98294.92
2023-01-17T21:11:22.594Z,98290.79
2023-01-17T21:13:56.525Z,98295.32
2023-01-17T21:16:29.749Z,98291.92
2023-01-17T21:19:02.802Z,98301.25
2023-01-17T21:21:35.301Z,98303.33
2023-01-17T21:24:09.867Z,98301.80
2023-01-17T21:26:44.464Z,98301.64
2023-01-17T21:29:17.027Z,98305.79
2023-01-17T21:31:49.708Z,98308.02
2023-01-17T21:34:24.579Z,98315.17
2023-01-17T21:36:57.811Z,98326.44
2023-01-17T21:39:31.657Z,98331.77
2023-01-17T21:42:04.052Z,98334.50
2023-01-17T21:44:38.042Z,98340.32
2023-01-17T21:47:10.658Z,98344.51
2023-01-17T21:49:43.264Z,98348.02
2023-01-17T21:52:21.793Z,98350.86
2023-01-17T21:55:14.361Z,98357.55
2023-01-17T21:58:04.446Z,98361.31
2023-01-17T22:00:37.090Z,98363.51
2023-01-17T22:03:09.598Z,98362.90
2023-01-17T22:05:42.074Z,98362.41
2023-01-17T22:08:17.772Z,98360.80
2023-01-17T22:10:50.327Z,98362.06
2023-01-17T22:13:22.793Z,98358.73
2023-01-17T22:16:02.896Z,98351.95
2023-01-17T22:18:38.354Z,98347.63
2023-01-17T22:21:14.528Z,98323.88
2023-01-17T22:23:50.168Z,98331.23
2023-01-17T22:26:24.539Z,98323.18
2023-01-17T22:29:00.596Z,98314.06
2023-01-17T22:31:33.642Z,98312.56
2023-01-17T22:34:07.007Z,98297.92
2023-01-17T22:36:40.729Z,98302.66
2023-01-17T22:39:13.878Z,98292.80
2023-01-17T22:41:46.482Z,98285.54
2023-01-17T22:44:18.907Z,98278.09
2023-01-17T22:46:51.591Z,98262.89
2023-01-17T22:49:24.617Z,98273.68
2023-01-17T22:51:57.352Z,98283.98
2023-01-17T22:54:29.878Z,98295.98
2023-01-17T22:57:02.399Z,98285.27
2023-01-17T22:59:35.415Z,98310.79
2023-01-17T23:02:08.314Z,98300.96
2023-01-17T23:04:40.839Z,98291.30
2023-01-17T23:07:13.541Z,98269.11
2023-01-17T23:09:46.040Z,98283.42
2023-01-17T23:12:18.925Z,98283.05
2023-01-17T23:15:08.809Z,98284.31
2023-01-17T23:18:00.057Z,98284.61
2023-01-17T23:20:32.706Z,98277.35
2023-01-17T23:23:05.325Z,98276.15
2023-01-17T23:25:37.761Z,98256.06
2023-01-17T23:28:20.684Z,98283.80
2023-01-17T23:30:53.214Z,98287.23
2023-01-17T23:33:25.909Z,98287.14
2023-01-17T23:35:58.327Z,98272.52
2023-01-17T23:38:30.931Z,98271.96
2023-01-17T23:41:19.355Z,98273.92
2023-01-17T23:43:55.170Z,98269.67
2023-01-17T23:46:30.226Z,98262.95
2023-01-17T23:49:03.803Z,98266.60
2023-01-17T23:51:36.254Z,98276.90
2023-01-17T23:54:08.886Z,98276.89
2023-01-17T23:56:41.276Z,98280.33
2023-01-17T23:59:14.020Z,98285.05
